sensor_id;sensor_type;location;lat;lon;timestamp;P1;durP1;ratioP1;P2;durP2;ratioP2
8161;SDS011;16778;48.154;15.094;2023-02-28T00:02:19;7.53;;;4.33;;
8161;SDS011;16778;48.154;15.094;2023-02-28T00:04:45;10.10;;;4.77;;
8161;SDS011;16778;48.154;15.094;2023-02-28T00:07:17;7.63;;;4.00;;
8161;SDS011;16778;48.154;15.094;2023-02-28T00:09:43;8.57;;;4.60;;
8161;SDS011;16778;48.154;15.094;2023-02-28T00:12:09;12.27;;;4.63;;
8161;SDS011;16778;48.154;15.094;2023-02-28T00:14:38;7.87;;;4.30;;
8161;SDS011;16778;48.154;15.094;2023-02-28T00:17:03;8.37;;;4.17;;
8161;SDS011;16778;48.154;15.094;2023-02-28T00:19:29;7.50;;;4.37;;
8161;SDS011;16778;48.154;15.094;2023-02-28T00:21:54;9.57;;;5.00;;
8161;SDS011;16778;48.154;15.094;2023-02-28T00:24:20;8.70;;;4.67;;
8161;SDS011;16778;48.154;15.094;2023-02-28T00:26:46;12.10;;;4.47;;
8161;SDS011;16778;48.154;15.094;2023-02-28T00:29:11;7.93;;;3.77;;
8161;SDS011;16778;48.154;15.094;2023-02-28T00:31:37;10.43;;;4.60;;
8161;SDS011;16778;48.154;15.094;2023-02-28T00:34:02;7.20;;;3.33;;
8161;SDS011;16778;48.154;15.094;2023-02-28T00:36:28;6.97;;;4.53;;
8161;SDS011;16778;48.154;15.094;2023-02-28T00:38:54;7.97;;;4.10;;
8161;SDS011;16778;48.154;15.094;2023-02-28T00:41:19;6.33;;;4.00;;
8161;SDS011;16778;48.154;15.094;2023-02-28T00:43:45;7.93;;;4.10;;
8161;SDS011;16778;48.154;15.094;2023-02-28T00:46:10;8.00;;;4.30;;
8161;SDS011;16778;48.154;15.094;2023-02-28T00:48:36;9.00;;;4.47;;
8161;SDS011;16778;48.154;15.094;2023-02-28T00:51:02;8.30;;;3.93;;
8161;SDS011;16778;48.154;15.094;2023-02-28T00:53:28;8.53;;;4.63;;
8161;SDS011;16778;48.154;15.094;2023-02-28T00:55:54;10.70;;;4.90;;
8161;SDS011;16778;48.154;15.094;2023-02-28T00:58:19;7.27;;;4.30;;
8161;SDS011;16778;48.154;15.094;2023-02-28T01:00:45;9.77;;;4.23;;
8161;SDS011;16778;48.154;15.094;2023-02-28T01:03:14;9.88;;;4.57;;
8161;SDS011;16778;48.154;15.094;2023-02-28T01:05:41;9.07;;;4.55;;
8161;SDS011;16778;48.154;15.094;2023-02-28T01:08:07;8.53;;;4.57;;
8161;SDS011;16778;48.154;15.094;2023-02-28T01:10:32;12.13;;;5.00;;
8161;SDS011;16778;48.154;15.094;2023-02-28T01:12:58;9.87;;;4.17;;
8161;SDS011;16778;48.154;15.094;2023-02-28T01:15:23;13.50;;;4.80;;
8161;SDS011;16778;48.154;15.094;2023-02-28T01:17:49;8.93;;;3.93;;
8161;SDS011;16778;48.154;15.094;2023-02-28T01:20:15;11.00;;;4.60;;
8161;SDS011;16778;48.154;15.094;2023-02-28T01:22:40;9.70;;;4.13;;
8161;SDS011;16778;48.154;15.094;2023-02-28T01:25:06;6.90;;;3.83;;
8161;SDS011;16778;48.154;15.094;2023-02-28T01:27:33;9.05;;;4.70;;
8161;SDS011;16778;48.154;15.094;2023-02-28T01:29:58;15.88;;;5.05;;
8161;SDS011;16778;48.154;15.094;2023-02-28T01:32:24;9.83;;;4.83;;
8161;SDS011;16778;48.154;15.094;2023-02-28T01:34:50;8.13;;;4.03;;
8161;SDS011;16778;48.154;15.094;2023-02-28T01:37:15;10.13;;;4.33;;
8161;SDS011;16778;48.154;15.094;2023-02-28T01:39:41;9.90;;;5.40;;
8161;SDS011;16778;48.154;15.094;2023-02-28T01:42:08;7.73;;;4.10;;
8161;SDS011;16778;48.154;15.094;2023-02-28T01:47:28;7.50;;;3.22;;
8161;SDS011;16778;48.154;15.094;2023-02-28T01:49:57;9.70;;;4.07;;
8161;SDS011;16778;48.154;15.094;2023-02-28T01:52:23;6.07;;;3.30;;
8161;SDS011;16778;48.154;15.094;2023-02-28T01:54:51;8.68;;;4.40;;
8161;SDS011;16778;48.154;15.094;2023-02-28T01:57:18;10.10;;;3.60;;
8161;SDS011;16778;48.154;15.094;2023-02-28T01:59:48;6.35;;;4.03;;
8161;SDS011;16778;48.154;15.094;2023-02-28T02:02:18;9.50;;;3.70;;
8161;SDS011;16778;48.154;15.094;2023-02-28T02:05:01;11.27;;;4.25;;
8161;SDS011;16778;48.154;15.094;2023-02-28T02:07:34;9.00;;;4.13;;
8161;SDS011;16778;48.154;15.094;2023-02-28T02:15:16;7.40;;;3.55;;
8161;SDS011;16778;48.154;15.094;2023-02-28T02:18:04;8.10;;;4.22;;
8161;SDS011;16778;48.154;15.094;2023-02-28T02:48:02;7.97;;;4.25;;
8161;SDS011;16778;48.154;15.094;2023-02-28T02:50:32;8.07;;;4.05;;
8161;SDS011;16778;48.154;15.094;2023-02-28T02:53:01;10.95;;;4.65;;
8161;SDS011;16778;48.154;15.094;2023-02-28T02:55:28;11.15;;;4.45;;
8161;SDS011;16778;48.154;15.094;2023-02-28T02:57:59;17.15;;;5.22;;
8161;SDS011;16778;48.154;15.094;2023-02-28T03:00:41;13.15;;;4.88;;
8161;SDS011;16778;48.154;15.094;2023-02-28T03:03:11;13.55;;;4.30;;
8161;SDS011;16778;48.154;15.094;2023-02-28T03:05:50;9.57;;;4.53;;
8161;SDS011;16778;48.154;15.094;2023-02-28T03:08:16;11.68;;;5.30;;
8161;SDS011;16778;48.154;15.094;2023-02-28T03:10:43;7.72;;;4.47;;
8161;SDS011;16778;48.154;15.094;2023-02-28T03:13:30;7.78;;;3.47;;
8161;SDS011;16778;48.154;15.094;2023-02-28T03:22:16;11.68;;;4.50;;
8161;SDS011;16778;48.154;15.094;2023-02-28T03:25:00;9.50;;;5.07;;
8161;SDS011;16778;48.154;15.094;2023-02-28T03:27:30;9.43;;;4.10;;
8161;SDS011;16778;48.154;15.094;2023-02-28T03:30:49;10.38;;;5.00;;
8161;SDS011;16778;48.154;15.094;2023-02-28T03:33:28;7.15;;;4.40;;
8161;SDS011;16778;48.154;15.094;2023-02-28T03:36:02;10.80;;;4.40;;
8161;SDS011;16778;48.154;15.094;2023-02-28T03:41:32;6.78;;;3.45;;
8161;SDS011;16778;48.154;15.094;2023-02-28T03:44:18;6.97;;;3.40;;
8161;SDS011;16778;48.154;15.094;2023-02-28T03:46:48;7.43;;;4.03;;
8161;SDS011;16778;48.154;15.094;2023-02-28T03:49:28;12.88;;;4.57;;
8161;SDS011;16778;48.154;15.094;2023-02-28T03:51:58;9.50;;;4.35;;
8161;SDS011;16778;48.154;15.094;2023-02-28T03:54:26;6.95;;;4.13;;
8161;SDS011;16778;48.154;15.094;2023-02-28T03:57:05;11.98;;;5.47;;
8161;SDS011;16778;48.154;15.094;2023-02-28T03:59:59;10.13;;;5.00;;
8161;SDS011;16778;48.154;15.094;2023-02-28T04:02:31;6.32;;;2.65;;
8161;SDS011;16778;48.154;15.094;2023-02-28T04:04:56;5.03;;;2.75;;
8161;SDS011;16778;48.154;15.094;2023-02-28T04:07:22;9.73;;;3.37;;
8161;SDS011;16778;48.154;15.094;2023-02-28T04:09:48;5.13;;;3.37;;
8161;SDS011;16778;48.154;15.094;2023-02-28T04:12:13;11.23;;;5.17;;
8161;SDS011;16778;48.154;15.094;2023-02-28T04:14:39;10.77;;;3.73;;
8161;SDS011;16778;48.154;15.094;2023-02-28T04:17:04;13.27;;;5.47;;
8161;SDS011;16778;48.154;15.094;2023-02-28T04:19:30;9.03;;;4.90;;
8161;SDS011;16778;48.154;15.094;2023-02-28T04:21:56;7.40;;;2.97;;
8161;SDS011;16778;48.154;15.094;2023-02-28T04:24:22;8.80;;;5.03;;
8161;SDS011;16778;48.154;15.094;2023-02-28T04:26:50;9.93;;;3.90;;
8161;SDS011;16778;48.154;15.094;2023-02-28T04:29:19;9.50;;;4.93;;
8161;SDS011;16778;48.154;15.094;2023-02-28T04:31:46;5.28;;;2.53;;
8161;SDS011;16778;48.154;15.094;2023-02-28T04:34:12;13.10;;;5.60;;
8161;SDS011;16778;48.154;15.094;2023-02-28T04:36:37;9.83;;;3.67;;
8161;SDS011;16778;48.154;15.094;2023-02-28T04:39:03;9.00;;;4.30;;
8161;SDS011;16778;48.154;15.094;2023-02-28T04:41:29;10.93;;;4.93;;
8161;SDS011;16778;48.154;15.094;2023-02-28T04:43:54;23.17;;;4.77;;
8161;SDS011;16778;48.154;15.094;2023-02-28T04:46:21;14.70;;;6.28;;
8161;SDS011;16778;48.154;15.094;2023-02-28T04:48:47;6.60;;;3.38;;
8161;SDS011;16778;48.154;15.094;2023-02-28T04:51:14;10.80;;;4.70;;
8161;SDS011;16778;48.154;15.094;2023-02-28T04:53:41;10.32;;;4.90;;
8161;SDS011;16778;48.154;15.094;2023-02-28T04:56:08;9.30;;;3.83;;
8161;SDS011;16778;48.154;15.094;2023-02-28T04:58:35;12.80;;;5.32;;
8161;SDS011;16778;48.154;15.094;2023-02-28T05:01:05;10.30;;;4.83;;
8161;SDS011;16778;48.154;15.094;2023-02-28T05:03:42;13.70;;;6.30;;
8161;SDS011;16778;48.154;15.094;2023-02-28T05:06:08;12.02;;;5.10;;
8161;SDS011;16778;48.154;15.094;2023-02-28T05:08:34;9.82;;;4.07;;
8161;SDS011;16778;48.154;15.094;2023-02-28T05:11:00;10.53;;;4.23;;
8161;SDS011;16778;48.154;15.094;2023-02-28T05:13:26;12.13;;;4.83;;
8161;SDS011;16778;48.154;15.094;2023-02-28T05:15:52;6.72;;;3.40;;
8161;SDS011;16778;48.154;15.094;2023-02-28T05:18:18;14.17;;;4.90;;
8161;SDS011;16778;48.154;15.094;2023-02-28T05:20:44;10.43;;;5.57;;
8161;SDS011;16778;48.154;15.094;2023-02-28T05:23:13;10.47;;;4.17;;
8161;SDS011;16778;48.154;15.094;2023-02-28T05:25:40;9.70;;;5.03;;
8161;SDS011;16778;48.154;15.094;2023-02-28T05:28:06;12.43;;;4.80;;
8161;SDS011;16778;48.154;15.094;2023-02-28T05:30:32;11.23;;;4.47;;
8161;SDS011;16778;48.154;15.094;2023-02-28T05:32:58;8.83;;;4.17;;
8161;SDS011;16778;48.154;15.094;2023-02-28T05:35:24;7.03;;;3.75;;
8161;SDS011;16778;48.154;15.094;2023-02-28T05:37:50;12.63;;;4.60;;
8161;SDS011;16778;48.154;15.094;2023-02-28T05:40:16;9.60;;;4.83;;
8161;SDS011;16778;48.154;15.094;2023-02-28T05:42:42;7.78;;;3.92;;
8161;SDS011;16778;48.154;15.094;2023-02-28T05:45:07;11.10;;;4.67;;
8161;SDS011;16778;48.154;15.094;2023-02-28T05:47:34;12.93;;;4.28;;
8161;SDS011;16778;48.154;15.094;2023-02-28T05:49:59;11.30;;;4.90;;
8161;SDS011;16778;48.154;15.094;2023-02-28T05:52:26;9.55;;;4.57;;
8161;SDS011;16778;48.154;15.094;2023-02-28T05:54:52;11.65;;;5.45;;
8161;SDS011;16778;48.154;15.094;2023-02-28T05:57:17;11.70;;;3.97;;
8161;SDS011;16778;48.154;15.094;2023-02-28T05:59:43;4.97;;;2.30;;
8161;SDS011;16778;48.154;15.094;2023-02-28T06:02:12;11.77;;;4.30;;
8161;SDS011;16778;48.154;15.094;2023-02-28T06:04:38;7.55;;;3.60;;
8161;SDS011;16778;48.154;15.094;2023-02-28T06:07:05;10.32;;;3.95;;
8161;SDS011;16778;48.154;15.094;2023-02-28T06:09:31;8.40;;;3.57;;
8161;SDS011;16778;48.154;15.094;2023-02-28T06:11:57;5.80;;;3.40;;
8161;SDS011;16778;48.154;15.094;2023-02-28T06:14:24;8.90;;;4.78;;
8161;SDS011;16778;48.154;15.094;2023-02-28T06:16:49;11.87;;;5.93;;
8161;SDS011;16778;48.154;15.094;2023-02-28T06:19:15;10.53;;;4.67;;
8161;SDS011;16778;48.154;15.094;2023-02-28T06:21:41;8.43;;;4.57;;
8161;SDS011;16778;48.154;15.094;2023-02-28T06:24:07;9.13;;;4.37;;
8161;SDS011;16778;48.154;15.094;2023-02-28T06:26:33;9.83;;;4.60;;
8161;SDS011;16778;48.154;15.094;2023-02-28T06:28:59;8.73;;;3.93;;
8161;SDS011;16778;48.154;15.094;2023-02-28T06:31:26;7.80;;;3.70;;
8161;SDS011;16778;48.154;15.094;2023-02-28T06:33:53;7.40;;;4.07;;
8161;SDS011;16778;48.154;15.094;2023-02-28T06:36:20;11.27;;;5.03;;
8161;SDS011;16778;48.154;15.094;2023-02-28T06:38:45;10.70;;;3.03;;
8161;SDS011;16778;48.154;15.094;2023-02-28T06:41:16;13.10;;;3.55;;
8161;SDS011;16778;48.154;15.094;2023-02-28T06:43:42;8.80;;;4.18;;
8161;SDS011;16778;48.154;15.094;2023-02-28T06:46:09;6.28;;;3.55;;
8161;SDS011;16778;48.154;15.094;2023-02-28T06:48:36;7.18;;;2.42;;
8161;SDS011;16778;48.154;15.094;2023-02-28T06:51:03;6.80;;;4.03;;
8161;SDS011;16778;48.154;15.094;2023-02-28T06:53:30;9.32;;;4.95;;
8161;SDS011;16778;48.154;15.094;2023-02-28T06:55:56;10.00;;;4.13;;
8161;SDS011;16778;48.154;15.094;2023-02-28T06:58:22;6.80;;;3.27;;
8161;SDS011;16778;48.154;15.094;2023-02-28T07:00:50;12.77;;;3.70;;
8161;SDS011;16778;48.154;15.094;2023-02-28T07:03:16;9.15;;;4.55;;
8161;SDS011;16778;48.154;15.094;2023-02-28T07:05:43;11.20;;;4.90;;
8161;SDS011;16778;48.154;15.094;2023-02-28T07:08:09;7.38;;;4.35;;
8161;SDS011;16778;48.154;15.094;2023-02-28T07:10:36;5.20;;;3.23;;
8161;SDS011;16778;48.154;15.094;2023-02-28T07:13:03;15.57;;;5.07;;
8161;SDS011;16778;48.154;15.094;2023-02-28T07:15:29;9.38;;;4.75;;
8161;SDS011;16778;48.154;15.094;2023-02-28T07:17:55;7.23;;;3.73;;
8161;SDS011;16778;48.154;15.094;2023-02-28T07:20:21;9.98;;;4.07;;
8161;SDS011;16778;48.154;15.094;2023-02-28T07:22:48;9.85;;;4.32;;
8161;SDS011;16778;48.154;15.094;2023-02-28T07:25:20;10.57;;;4.45;;
8161;SDS011;16778;48.154;15.094;2023-02-28T07:27:46;7.60;;;3.83;;
8161;SDS011;16778;48.154;15.094;2023-02-28T07:30:12;7.47;;;3.67;;
8161;SDS011;16778;48.154;15.094;2023-02-28T07:32:38;9.90;;;5.47;;
8161;SDS011;16778;48.154;15.094;2023-02-28T07:35:03;13.30;;;4.87;;
8161;SDS011;16778;48.154;15.094;2023-02-28T07:37:29;8.60;;;4.95;;
8161;SDS011;16778;48.154;15.094;2023-02-28T07:39:56;7.75;;;4.55;;
8161;SDS011;16778;48.154;15.094;2023-02-28T07:42:22;15.93;;;5.27;;
8161;SDS011;16778;48.154;15.094;2023-02-28T07:44:47;6.57;;;3.80;;
8161;SDS011;16778;48.154;15.094;2023-02-28T07:47:13;8.40;;;4.60;;
8161;SDS011;16778;48.154;15.094;2023-02-28T07:49:39;12.93;;;4.30;;
8161;SDS011;16778;48.154;15.094;2023-02-28T07:52:05;11.10;;;5.40;;
8161;SDS011;16778;48.154;15.094;2023-02-28T07:54:31;8.43;;;4.07;;
8161;SDS011;16778;48.154;15.094;2023-02-28T07:56:57;10.47;;;5.00;;
8161;SDS011;16778;48.154;15.094;2023-02-28T07:59:22;10.13;;;4.13;;
8161;SDS011;16778;48.154;15.094;2023-02-28T08:01:48;7.03;;;3.70;;
8161;SDS011;16778;48.154;15.094;2023-02-28T08:04:15;9.30;;;4.17;;
8161;SDS011;16778;48.154;15.094;2023-02-28T08:06:44;6.63;;;3.50;;
8161;SDS011;16778;48.154;15.094;2023-02-28T08:09:10;9.97;;;5.93;;
8161;SDS011;16778;48.154;15.094;2023-02-28T08:11:36;10.53;;;5.37;;
8161;SDS011;16778;48.154;15.094;2023-02-28T08:14:02;8.13;;;5.17;;
8161;SDS011;16778;48.154;15.094;2023-02-28T08:16:27;15.17;;;4.73;;
8161;SDS011;16778;48.154;15.094;2023-02-28T08:18:53;7.07;;;4.40;;
8161;SDS011;16778;48.154;15.094;2023-02-28T08:21:19;10.40;;;4.47;;
8161;SDS011;16778;48.154;15.094;2023-02-28T08:23:49;8.43;;;4.53;;
8161;SDS011;16778;48.154;15.094;2023-02-28T08:26:16;9.17;;;4.70;;
8161;SDS011;16778;48.154;15.094;2023-02-28T08:28:42;8.83;;;3.87;;
8161;SDS011;16778;48.154;15.094;2023-02-28T08:31:11;9.43;;;4.70;;
8161;SDS011;16778;48.154;15.094;2023-02-28T08:33:39;11.40;;;5.10;;
8161;SDS011;16778;48.154;15.094;2023-02-28T08:36:06;10.63;;;5.33;;
8161;SDS011;16778;48.154;15.094;2023-02-28T08:38:32;13.37;;;5.53;;
8161;SDS011;16778;48.154;15.094;2023-02-28T08:41:02;5.60;;;3.67;;
8161;SDS011;16778;48.154;15.094;2023-02-28T08:43:31;8.93;;;4.80;;
8161;SDS011;16778;48.154;15.094;2023-02-28T08:45:56;9.03;;;4.50;;
8161;SDS011;16778;48.154;15.094;2023-02-28T08:48:22;9.27;;;4.97;;
8161;SDS011;16778;48.154;15.094;2023-02-28T08:50:56;7.07;;;4.10;;
8161;SDS011;16778;48.154;15.094;2023-02-28T08:53:23;10.53;;;4.37;;
8161;SDS011;16778;48.154;15.094;2023-02-28T08:55:55;9.47;;;4.53;;
8161;SDS011;16778;48.154;15.094;2023-02-28T08:58:25;13.80;;;4.87;;
8161;SDS011;16778;48.154;15.094;2023-02-28T09:00:50;11.20;;;4.50;;
8161;SDS011;16778;48.154;15.094;2023-02-28T09:03:16;8.03;;;4.53;;
8161;SDS011;16778;48.154;15.094;2023-02-28T09:05:51;22.33;;;6.00;;
8161;SDS011;16778;48.154;15.094;2023-02-28T09:08:25;9.07;;;5.27;;
8161;SDS011;16778;48.154;15.094;2023-02-28T09:10:51;13.03;;;5.50;;
8161;SDS011;16778;48.154;15.094;2023-02-28T09:13:17;10.70;;;5.43;;
8161;SDS011;16778;48.154;15.094;2023-02-28T09:15:43;9.83;;;5.23;;
8161;SDS011;16778;48.154;15.094;2023-02-28T09:18:09;11.23;;;4.83;;
8161;SDS011;16778;48.154;15.094;2023-02-28T09:20:37;7.73;;;4.60;;
8161;SDS011;16778;48.154;15.094;2023-02-28T09:23:04;11.27;;;6.00;;
8161;SDS011;16778;48.154;15.094;2023-02-28T09:25:30;10.27;;;4.90;;
8161;SDS011;16778;48.154;15.094;2023-02-28T09:27:56;10.23;;;4.67;;
8161;SDS011;16778;48.154;15.094;2023-02-28T09:30:22;9.27;;;4.43;;
8161;SDS011;16778;48.154;15.094;2023-02-28T09:32:47;10.57;;;5.03;;
8161;SDS011;16778;48.154;15.094;2023-02-28T09:35:20;16.43;;;6.30;;
8161;SDS011;16778;48.154;15.094;2023-02-28T09:37:47;6.83;;;4.43;;
8161;SDS011;16778;48.154;15.094;2023-02-28T09:40:13;9.73;;;4.83;;
8161;SDS011;16778;48.154;15.094;2023-02-28T09:42:42;12.23;;;6.50;;
8161;SDS011;16778;48.154;15.094;2023-02-28T09:48:06;14.70;;;6.93;;
8161;SDS011;16778;48.154;15.094;2023-02-28T09:50:38;10.90;;;5.03;;
8161;SDS011;16778;48.154;15.094;2023-02-28T09:53:22;15.77;;;5.40;;
8161;SDS011;16778;48.154;15.094;2023-02-28T09:55:53;10.10;;;4.57;;
8161;SDS011;16778;48.154;15.094;2023-02-28T09:58:32;15.93;;;5.00;;
8161;SDS011;16778;48.154;15.094;2023-02-28T10:01:21;6.03;;;3.73;;
8161;SDS011;16778;48.154;15.094;2023-02-28T10:06:39;10.70;;;5.90;;
8161;SDS011;16778;48.154;15.094;2023-02-28T10:09:11;18.90;;;6.10;;
8161;SDS011;16778;48.154;15.094;2023-02-28T10:11:40;12.57;;;6.40;;
8161;SDS011;16778;48.154;15.094;2023-02-28T10:14:15;9.67;;;5.60;;
8161;SDS011;16778;48.154;15.094;2023-02-28T10:16:53;17.73;;;5.60;;
8161;SDS011;16778;48.154;15.094;2023-02-28T10:19:30;8.17;;;4.40;;
8161;SDS011;16778;48.154;15.094;2023-02-28T10:22:01;9.93;;;4.53;;
8161;SDS011;16778;48.154;15.094;2023-02-28T10:24:35;12.67;;;5.80;;
8161;SDS011;16778;48.154;15.094;2023-02-28T10:27:14;12.03;;;6.07;;
8161;SDS011;16778;48.154;15.094;2023-02-28T10:29:44;10.87;;;5.27;;
8161;SDS011;16778;48.154;15.094;2023-02-28T10:32:19;9.43;;;5.23;;
8161;SDS011;16778;48.154;15.094;2023-02-28T10:35:06;9.47;;;5.60;;
8161;SDS011;16778;48.154;15.094;2023-02-28T10:38:04;10.80;;;5.60;;
8161;SDS011;16778;48.154;15.094;2023-02-28T10:40:42;10.60;;;5.70;;
8161;SDS011;16778;48.154;15.094;2023-02-28T10:45:39;10.80;;;4.97;;
8161;SDS011;16778;48.154;15.094;2023-02-28T10:58:23;10.53;;;5.47;;
8161;SDS011;16778;48.154;15.094;2023-02-28T11:00:51;11.40;;;6.17;;
8161;SDS011;16778;48.154;15.094;2023-02-28T11:03:25;11.30;;;6.17;;
8161;SDS011;16778;48.154;15.094;2023-02-28T11:05:55;11.03;;;6.23;;
8161;SDS011;16778;48.154;15.094;2023-02-28T11:08:21;5.93;;;3.83;;
8161;SDS011;16778;48.154;15.094;2023-02-28T11:10:48;8.23;;;4.73;;
8161;SDS011;16778;48.154;15.094;2023-02-28T11:13:20;10.50;;;5.43;;
8161;SDS011;16778;48.154;15.094;2023-02-28T11:15:55;12.57;;;7.20;;
8161;SDS011;16778;48.154;15.094;2023-02-28T11:20:49;12.20;;;6.40;;
8161;SDS011;16778;48.154;15.094;2023-02-28T11:23:15;11.17;;;6.77;;
8161;SDS011;16778;48.154;15.094;2023-02-28T11:25:46;11.70;;;6.93;;
8161;SDS011;16778;48.154;15.094;2023-02-28T11:36:10;11.53;;;6.47;;
8161;SDS011;16778;48.154;15.094;2023-02-28T11:38:40;11.73;;;4.77;;
8161;SDS011;16778;48.154;15.094;2023-02-28T12:04:46;9.47;;;6.10;;
8161;SDS011;16778;48.154;15.094;2023-02-28T12:08:21;9.93;;;5.60;;
8161;SDS011;16778;48.154;15.094;2023-02-28T12:10:29;10.00;;;6.07;;
8161;SDS011;16778;48.154;15.094;2023-02-28T12:13:03;10.53;;;5.90;;
8161;SDS011;16778;48.154;15.094;2023-02-28T12:28:51;10.17;;;5.53;;
8161;SDS011;16778;48.154;15.094;2023-02-28T12:31:20;13.93;;;7.10;;
8161;SDS011;16778;48.154;15.094;2023-02-28T12:33:52;10.63;;;6.17;;
8161;SDS011;16778;48.154;15.094;2023-02-28T12:36:19;9.20;;;5.80;;
8161;SDS011;16778;48.154;15.094;2023-02-28T12:38:58;11.73;;;6.27;;
8161;SDS011;16778;48.154;15.094;2023-02-28T12:41:48;16.73;;;6.47;;
8161;SDS011;16778;48.154;15.094;2023-02-28T12:44:19;12.67;;;6.70;;
8161;SDS011;16778;48.154;15.094;2023-02-28T12:46:51;13.83;;;6.60;;
8161;SDS011;16778;48.154;15.094;2023-02-28T12:49:25;13.13;;;6.20;;
8161;SDS011;16778;48.154;15.094;2023-02-28T12:51:56;8.30;;;5.03;;
8161;SDS011;16778;48.154;15.094;2023-02-28T12:54:42;10.90;;;5.00;;
8161;SDS011;16778;48.154;15.094;2023-02-28T13:00:00;10.50;;;5.00;;
8161;SDS011;16778;48.154;15.094;2023-02-28T13:05:00;12.70;;;7.33;;
8161;SDS011;16778;48.154;15.094;2023-02-28T13:10:20;12.37;;;5.80;;
8161;SDS011;16778;48.154;15.094;2023-02-28T13:12:50;12.23;;;6.43;;
8161;SDS011;16778;48.154;15.094;2023-02-28T13:15:23;12.83;;;6.90;;
8161;SDS011;16778;48.154;15.094;2023-02-28T13:17:54;11.53;;;6.50;;
8161;SDS011;16778;48.154;15.094;2023-02-28T13:20:25;10.40;;;5.53;;
8161;SDS011;16778;48.154;15.094;2023-02-28T13:22:59;12.63;;;6.37;;
8161;SDS011;16778;48.154;15.094;2023-02-28T13:27:58;8.97;;;5.30;;
8161;SDS011;16778;48.154;15.094;2023-02-28T13:38:39;15.23;;;6.37;;
8161;SDS011;16778;48.154;15.094;2023-02-28T13:44:00;12.20;;;6.70;;
8161;SDS011;16778;48.154;15.094;2023-02-28T13:46:28;12.40;;;7.13;;
8161;SDS011;16778;48.154;15.094;2023-02-28T13:48:53;10.53;;;5.33;;
8161;SDS011;16778;48.154;15.094;2023-02-28T13:51:53;5.93;;;3.63;;
8161;SDS011;16778;48.154;15.094;2023-02-28T14:05:33;7.37;;;4.20;;
8161;SDS011;16778;48.154;15.094;2023-02-28T14:08:03;8.10;;;5.20;;
8161;SDS011;16778;48.154;15.094;2023-02-28T14:15:56;9.73;;;5.90;;
8161;SDS011;16778;48.154;15.094;2023-02-28T14:20:54;16.93;;;6.53;;
8161;SDS011;16778;48.154;15.094;2023-02-28T14:31:18;10.93;;;6.40;;
8161;SDS011;16778;48.154;15.094;2023-02-28T14:36:44;11.47;;;5.83;;
8161;SDS011;16778;48.154;15.094;2023-02-28T14:39:16;11.67;;;6.57;;
8161;SDS011;16778;48.154;15.094;2023-02-28T14:41:45;7.93;;;6.03;;
8161;SDS011;16778;48.154;15.094;2023-02-28T14:44:19;9.97;;;6.13;;
8161;SDS011;16778;48.154;15.094;2023-02-28T14:46:55;9.17;;;5.97;;
8161;SDS011;16778;48.154;15.094;2023-02-28T14:49:29;9.00;;;6.10;;
8161;SDS011;16778;48.154;15.094;2023-02-28T14:52:07;10.97;;;6.23;;
8161;SDS011;16778;48.154;15.094;2023-02-28T14:54:39;10.70;;;6.20;;
8161;SDS011;16778;48.154;15.094;2023-02-28T14:57:05;9.80;;;5.50;;
8161;SDS011;16778;48.154;15.094;2023-02-28T14:59:32;9.13;;;6.10;;
8161;SDS011;16778;48.154;15.094;2023-02-28T15:02:17;11.63;;;5.90;;
8161;SDS011;16778;48.154;15.094;2023-02-28T15:04:58;9.53;;;6.03;;
8161;SDS011;16778;48.154;15.094;2023-02-28T15:07:25;9.47;;;6.00;;
8161;SDS011;16778;48.154;15.094;2023-02-28T15:12:45;9.17;;;5.80;;
8161;SDS011;16778;48.154;15.094;2023-02-28T15:15:17;10.93;;;6.60;;
8161;SDS011;16778;48.154;15.094;2023-02-28T15:17:53;9.57;;;6.03;;
8161;SDS011;16778;48.154;15.094;2023-02-28T15:20:21;13.70;;;6.33;;
8161;SDS011;16778;48.154;15.094;2023-02-28T15:22:47;12.53;;;6.30;;
8161;SDS011;16778;48.154;15.094;2023-02-28T15:25:17;9.40;;;5.43;;
8161;SDS011;16778;48.154;15.094;2023-02-28T15:27:46;10.27;;;6.07;;
8161;SDS011;16778;48.154;15.094;2023-02-28T15:30:18;12.07;;;6.50;;
8161;SDS011;16778;48.154;15.094;2023-02-28T15:33:01;14.40;;;6.13;;
8161;SDS011;16778;48.154;15.094;2023-02-28T15:35:33;9.93;;;6.70;;
8161;SDS011;16778;48.154;15.094;2023-02-28T15:38:03;11.83;;;5.93;;
8161;SDS011;16778;48.154;15.094;2023-02-28T15:40:50;11.17;;;6.20;;
8161;SDS011;16778;48.154;15.094;2023-02-28T15:43:32;8.97;;;5.53;;
8161;SDS011;16778;48.154;15.094;2023-02-28T15:46:03;8.93;;;5.47;;
8161;SDS011;16778;48.154;15.094;2023-02-28T15:48:37;9.23;;;4.93;;
8161;SDS011;16778;48.154;15.094;2023-02-28T15:51:12;7.90;;;4.77;;
8161;SDS011;16778;48.154;15.094;2023-02-28T15:53:48;10.60;;;6.03;;
8161;SDS011;16778;48.154;15.094;2023-02-28T15:56:29;8.53;;;5.57;;
8161;SDS011;16778;48.154;15.094;2023-02-28T15:58:57;13.87;;;6.33;;
8161;SDS011;16778;48.154;15.094;2023-02-28T16:01:34;10.50;;;6.77;;
8161;SDS011;16778;48.154;15.094;2023-02-28T16:04:06;9.93;;;6.43;;
8161;SDS011;16778;48.154;15.094;2023-02-28T16:06:39;16.03;;;6.47;;
8161;SDS011;16778;48.154;15.094;2023-02-28T16:09:08;13.30;;;6.50;;
8161;SDS011;16778;48.154;15.094;2023-02-28T16:11:37;10.33;;;6.67;;
8161;SDS011;16778;48.154;15.094;2023-02-28T16:14:05;11.23;;;6.20;;
8161;SDS011;16778;48.154;15.094;2023-02-28T16:16:32;10.47;;;5.93;;
8161;SDS011;16778;48.154;15.094;2023-02-28T16:18:58;11.17;;;5.87;;
8161;SDS011;16778;48.154;15.094;2023-02-28T16:21:24;8.87;;;5.63;;
8161;SDS011;16778;48.154;15.094;2023-02-28T16:23:50;13.67;;;6.30;;
8161;SDS011;16778;48.154;15.094;2023-02-28T16:26:18;12.30;;;6.00;;
8161;SDS011;16778;48.154;15.094;2023-02-28T16:28:46;10.17;;;6.27;;
8161;SDS011;16778;48.154;15.094;2023-02-28T16:31:12;12.37;;;6.53;;
8161;SDS011;16778;48.154;15.094;2023-02-28T16:33:41;13.00;;;6.17;;
8161;SDS011;16778;48.154;15.094;2023-02-28T16:36:09;12.73;;;6.80;;
8161;SDS011;16778;48.154;15.094;2023-02-28T16:38:38;12.83;;;6.60;;
8161;SDS011;16778;48.154;15.094;2023-02-28T16:41:03;12.13;;;6.40;;
8161;SDS011;16778;48.154;15.094;2023-02-28T16:43:33;12.17;;;6.53;;
8161;SDS011;16778;48.154;15.094;2023-02-28T16:45:59;9.73;;;6.17;;
8161;SDS011;16778;48.154;15.094;2023-02-28T16:48:26;13.47;;;6.93;;
8161;SDS011;16778;48.154;15.094;2023-02-28T16:50:51;11.60;;;6.60;;
8161;SDS011;16778;48.154;15.094;2023-02-28T16:53:17;13.60;;;6.70;;
8161;SDS011;16778;48.154;15.094;2023-02-28T16:55:43;8.43;;;5.23;;
8161;SDS011;16778;48.154;15.094;2023-02-28T16:58:11;12.00;;;6.43;;
8161;SDS011;16778;48.154;15.094;2023-02-28T17:00:39;8.77;;;5.07;;
8161;SDS011;16778;48.154;15.094;2023-02-28T17:03:05;13.70;;;6.23;;
8161;SDS011;16778;48.154;15.094;2023-02-28T17:05:35;13.10;;;6.43;;
8161;SDS011;16778;48.154;15.094;2023-02-28T17:08:02;12.07;;;6.30;;
8161;SDS011;16778;48.154;15.094;2023-02-28T17:10:29;14.87;;;6.10;;
8161;SDS011;16778;48.154;15.094;2023-02-28T17:12:55;11.23;;;5.70;;
8161;SDS011;16778;48.154;15.094;2023-02-28T17:15:20;24.07;;;8.43;;
8161;SDS011;16778;48.154;15.094;2023-02-28T17:17:47;13.63;;;6.33;;
8161;SDS011;16778;48.154;15.094;2023-02-28T17:20:18;12.00;;;5.83;;
8161;SDS011;16778;48.154;15.094;2023-02-28T17:22:48;9.47;;;5.70;;
8161;SDS011;16778;48.154;15.094;2023-02-28T17:25:14;10.83;;;6.07;;
8161;SDS011;16778;48.154;15.094;2023-02-28T17:27:40;14.93;;;6.57;;
8161;SDS011;16778;48.154;15.094;2023-02-28T17:30:22;13.57;;;6.27;;
8161;SDS011;16778;48.154;15.094;2023-02-28T17:32:49;9.57;;;5.10;;
8161;SDS011;16778;48.154;15.094;2023-02-28T17:35:15;15.63;;;6.47;;
8161;SDS011;16778;48.154;15.094;2023-02-28T17:37:41;11.00;;;5.73;;
8161;SDS011;16778;48.154;15.094;2023-02-28T17:40:17;12.10;;;5.43;;